createdAt,value
2022-09-12T00:02:15.846Z,12.30
2022-09-12T00:04:42.520Z,12.26
2022-09-12T00:07:09.193Z,12.16
2022-09-12T00:09:35.819Z,12.18
2022-09-12T00:12:02.643Z,12.34
2022-09-12T00:14:29.719Z,12.23
2022-09-12T00:17:00.314Z,12.16
2022-09-12T00:19:30.625Z,12.19
2022-09-12T00:21:57.664Z,12.16
2022-09-12T00:24:24.264Z,12.11
2022-09-12T00:26:50.934Z,12.05
2022-09-12T00:29:19.539Z,12.05
2022-09-12T00:31:46.409Z,12.05
2022-09-12T00:34:13.619Z,12.03
2022-09-12T00:36:40.612Z,12.01
2022-09-12T00:39:08.051Z,12.18
2022-09-12T00:41:37.135Z,12.33
2022-09-12T00:44:24.341Z,12.45
2022-09-12T00:47:13.868Z,12.50
2022-09-12T00:49:57.847Z,12.49
2022-09-12T00:52:30.330Z,12.48
2022-09-12T00:55:01.903Z,12.49
2022-09-12T00:57:32.794Z,12.53
2022-09-12T01:00:14.238Z,12.59
2022-09-12T01:02:41.990Z,12.58
2022-09-12T01:05:09.307Z,12.48
2022-09-12T01:07:40.103Z,12.51
2022-09-12T01:10:08.677Z,12.49
2022-09-12T01:12:39.277Z,12.53
2022-09-12T01:15:06.694Z,12.56
2022-09-12T01:18:05.887Z,12.29
2022-09-12T01:21:01.139Z,12.28
2022-09-12T01:23:57.782Z,12.39
2022-09-12T01:26:42.902Z,12.35
2022-09-12T01:29:30.638Z,12.25
2022-09-12T01:32:09.062Z,12.20
2022-09-12T01:34:45.744Z,12.10
2022-09-12T01:37:26.376Z,12.05
2022-09-12T01:40:18.706Z,12.07
2022-09-12T01:43:32.935Z,12.11
2022-09-12T01:46:10.031Z,12.14
2022-09-12T01:48:40.925Z,12.18
2022-09-12T01:51:18.640Z,12.20
2022-09-12T01:53:49.011Z,12.18
2022-09-12T01:56:22.537Z,12.21
2022-09-12T01:59:01.207Z,12.03
2022-09-12T02:01:31.331Z,12.06
2022-09-12T02:04:08.894Z,12.06
2022-09-12T02:06:43.284Z,12.08
2022-09-12T02:09:18.862Z,12.08
2022-09-12T02:11:46.402Z,12.09
2022-09-12T02:14:18.108Z,12.05
2022-09-12T02:16:49.100Z,12.05
2022-09-12T02:19:22.103Z,12.06
2022-09-12T02:21:52.743Z,12.06
2022-09-12T02:24:21.287Z,12.02
2022-09-12T02:26:51.267Z,11.93
2022-09-12T02:29:17.989Z,11.93
2022-09-12T02:31:50.032Z,11.92
2022-09-12T02:34:25.915Z,11.95
2022-09-12T02:37:00.889Z,11.91
2022-09-12T02:39:27.686Z,11.90
2022-09-12T02:41:59.765Z,11.84
2022-09-12T02:44:27.491Z,11.70
2022-09-12T02:46:56.954Z,11.66
2022-09-12T02:49:23.814Z,11.72
2022-09-12T02:51:51.068Z,11.68
2022-09-12T02:54:18.192Z,11.64
2022-09-12T02:56:46.182Z,11.57
2022-09-12T02:59:16.570Z,11.41
2022-09-12T03:01:49.921Z,11.36
2022-09-12T03:04:37.531Z,11.34
2022-09-12T03:07:16.377Z,11.35
2022-09-12T03:10:01.592Z,11.36
2022-09-12T03:12:31.126Z,11.40
2022-09-12T03:15:10.928Z,11.41
2022-09-12T03:17:49.768Z,11.46
2022-09-12T03:20:49.619Z,11.31
2022-09-12T03:23:22.253Z,11.29
2022-09-12T03:25:49.539Z,11.29
2022-09-12T03:28:17.673Z,11.29
2022-09-12T03:30:46.531Z,11.27
2022-09-12T03:33:23.522Z,11.30
2022-09-12T03:35:51.056Z,11.33
2022-09-12T03:38:18.247Z,11.22
2022-09-12T03:40:47.788Z,11.20
2022-09-12T03:43:16.082Z,11.11
2022-09-12T03:45:42.881Z,11.20
2022-09-12T03:48:09.567Z,11.23
2022-09-12T03:50:36.344Z,11.15
2022-09-12T03:53:03.877Z,11.12
2022-09-12T03:55:31.170Z,11.12
2022-09-12T03:57:57.824Z,11.06
2022-09-12T04:00:24.820Z,11.03
2022-09-12T04:02:56.487Z,11.06
2022-09-12T04:05:24.175Z,11.06
2022-09-12T04:07:51.058Z,10.93
2022-09-12T04:10:17.718Z,10.99
2022-09-12T04:12:44.680Z,11.05
2022-09-12T04:15:11.590Z,10.98
2022-09-12T04:17:38.242Z,10.96
2022-09-12T04:20:05.675Z,10.97
2022-09-12T04:22:33.394Z,10.95
2022-09-12T04:25:00.085Z,10.79
2022-09-12T04:27:26.755Z,10.65
2022-09-12T04:29:55.405Z,10.67
2022-09-12T04:32:22.500Z,10.71
2022-09-12T04:34:49.632Z,10.64
2022-09-12T04:37:16.983Z,10.45
2022-09-12T04:39:43.660Z,10.43
2022-09-12T04:42:10.424Z,10.46
2022-09-12T04:44:37.753Z,10.59
2022-09-12T04:47:04.535Z,10.64
2022-09-12T04:49:31.474Z,10.67
2022-09-12T04:51:58.260Z,10.68
2022-09-12T04:54:24.981Z,10.65
2022-09-12T04:56:52.942Z,10.70
2022-09-12T04:59:22.073Z,10.61
2022-09-12T05:01:48.790Z,10.66
2022-09-12T05:04:15.577Z,10.61
2022-09-12T05:06:42.716Z,10.55
2022-09-12T05:09:11.758Z,10.49
2022-09-12T05:12:03.182Z,10.52
2022-09-12T05:14:27.798Z,10.56
2022-09-12T05:16:59.893Z,10.60
2022-09-12T05:19:27.514Z,10.67
2022-09-12T05:21:54.197Z,10.73
2022-09-12T05:24:21.067Z,10.88
2022-09-12T05:26:48.257Z,10.74
2022-09-12T05:29:14.902Z,10.74
2022-09-12T05:31:41.928Z,10.75
2022-09-12T05:34:10.274Z,10.85
2022-09-12T05:36:37.479Z,10.98
2022-09-12T05:39:04.897Z,11.01
2022-09-12T05:41:33.630Z,11.22
2022-09-12T05:44:02.521Z,11.32
2022-09-12T05:46:36.934Z,11.42
2022-09-12T05:49:08.692Z,11.33
2022-09-12T05:51:40.962Z,11.48
2022-09-12T05:54:10.306Z,11.51
2022-09-12T05:56:39.678Z,11.60
2022-09-12T05:59:21.119Z,11.63
2022-09-12T06:01:48.668Z,11.63
2022-09-12T06:04:16.236Z,11.68
2022-09-12T06:06:45.339Z,11.68
2022-09-12T06:09:13.737Z,11.64
2022-09-12T06:11:41.190Z,11.67
2022-09-12T06:14:10.207Z,11.61
2022-09-12T06:16:37.853Z,11.67
2022-09-12T06:19:07.317Z,11.55
2022-09-12T06:21:35.470Z,11.55
2022-09-12T06:24:02.461Z,11.79
2022-09-12T06:26:30.256Z,11.89
2022-09-12T06:28:58.290Z,11.76
2022-09-12T06:31:36.161Z,11.80
2022-09-12T06:34:05.759Z,11.93
2022-09-12T06:36:35.045Z,12.12
2022-09-12T06:39:07.729Z,12.11
2022-09-12T06:41:34.235Z,12.09
2022-09-12T06:44:01.380Z,12.04
2022-09-12T06:46:28.177Z,12.06
2022-09-12T06:48:59.758Z,12.21
2022-09-12T06:51:27.735Z,12.29
2022-09-12T06:53:58.060Z,12.15
2022-09-12T06:56:26.688Z,12.08
2022-09-12T06:58:55.383Z,12.10
2022-09-12T07:01:26.882Z,12.17
2022-09-12T07:04:04.406Z,12.25
2022-09-12T07:06:36.274Z,12.27
2022-09-12T07:09:05.009Z,12.29
2022-09-12T07:11:37.253Z,12.39
2022-09-12T07:14:05.282Z,12.54
2022-09-12T07:16:32.414Z,12.86
2022-09-12T07:19:01.688Z,13.10
2022-09-12T07:21:29.299Z,13.25
2022-09-12T07:23:58.033Z,13.36
2022-09-12T07:26:26.650Z,13.52
2022-09-12T07:28:54.259Z,13.58
2022-09-12T07:31:23.436Z,13.68
2022-09-12T07:33:54.394Z,13.88
2022-09-12T07:36:24.739Z,13.93
2022-09-12T07:38:57.537Z,14.13
2022-09-12T07:41:33.640Z,14.22
2022-09-12T07:44:01.937Z,14.30
2022-09-12T07:46:30.155Z,14.45
2022-09-12T07:48:58.256Z,14.68
2022-09-12T07:51:26.102Z,14.82
2022-09-12T07:53:52.881Z,14.91
2022-09-12T07:56:20.059Z,15.15
2022-09-12T07:58:47.248Z,15.28
2022-09-12T08:01:23.242Z,15.44
2022-09-12T08:03:54.485Z,15.64
2022-09-12T08:06:24.291Z,15.70
2022-09-12T08:08:52.622Z,15.74
2022-09-12T08:11:21.894Z,15.77
2022-09-12T08:13:54.367Z,15.99
2022-09-12T08:16:23.520Z,16.17
2022-09-12T08:18:50.606Z,16.31
2022-09-12T08:21:18.604Z,16.44
2022-09-12T08:23:45.994Z,16.68
2022-09-12T08:26:13.293Z,16.92
2022-09-12T08:28:43.486Z,17.21
2022-09-12T08:31:16.195Z,17.58
2022-09-12T08:33:43.195Z,17.83
2022-09-12T08:36:15.247Z,18.07
2022-09-12T08:38:43.758Z,18.32
2022-09-12T08:41:19.334Z,18.45
2022-09-12T08:44:17.114Z,18.56
2022-09-12T08:47:15.293Z,18.73
2022-09-12T08:49:54.181Z,19.07
2022-09-12T08:52:23.750Z,19.01
2022-09-12T08:54:50.762Z,18.94
2022-09-12T08:57:19.224Z,18.82
2022-09-12T08:59:46.409Z,19.06
2022-09-12T09:02:46.482Z,19.20
2022-09-12T09:05:32.233Z,19.43
2022-09-12T09:08:17.510Z,19.38
2022-09-12T09:10:50.411Z,19.52
2022-09-12T09:13:50.269Z,19.73
2022-09-12T09:16:25.195Z,19.64
2022-09-12T09:18:53.135Z,19.77
2022-09-12T09:21:24.715Z,19.82
2022-09-12T09:23:57.494Z,19.97
2022-09-12T09:26:36.652Z,20.18
2022-09-12T09:29:06.841Z,20.29
2022-09-12T09:31:38.076Z,20.34
2022-09-12T09:34:13.984Z,20.36
2022-09-12T09:37:09.855Z,20.40
2022-09-12T09:39:46.281Z,20.54
2022-09-12T09:42:17.048Z,20.58
2022-09-12T09:44:46.710Z,20.27
2022-09-12T09:47:14.029Z,20.02
2022-09-12T09:49:41.042Z,20.14
2022-09-12T09:52:08.930Z,20.08
2022-09-12T09:54:45.758Z,20.36
2022-09-12T09:57:34.227Z,20.55
2022-09-12T10:00:32.601Z,20.63
2022-09-12T10:03:13.973Z,20.68
2022-09-12T10:05:51.008Z,20.58
2022-09-12T10:08:37.176Z,20.51
2022-09-12T10:11:15.928Z,20.70
2022-09-12T10:13:57.574Z,20.87
2022-09-12T10:16:29.864Z,21.02
2022-09-12T10:18:57.635Z,21.04
2022-09-12T10:21:46.007Z,21.11
2022-09-12T10:24:22.832Z,21.31
2022-09-12T10:27:13.990Z,21.37
2022-09-12T10:30:06.249Z,21.43
2022-09-12T10:32:44.404Z,21.42
2022-09-12T10:35:22.471Z,21.38
2022-09-12T10:37:56.454Z,21.43
2022-09-12T10:40:29.663Z,21.63
2022-09-12T10:42:58.429Z,21.69
2022-09-12T10:45:30.968Z,21.75
2022-09-12T10:48:03.095Z,21.68
2022-09-12T10:50:41.298Z,21.80
2022-09-12T10:53:25.758Z,21.66
2022-09-12T10:56:03.178Z,21.69
2022-09-12T10:58:38.832Z,21.65
2022-09-12T11:01:37.546Z,21.51
2022-09-12T11:04:15.861Z,21.71
2022-09-12T11:07:07.290Z,21.96
2022-09-12T11:09:56.036Z,21.93
2022-09-12T11:12:37.874Z,21.88
2022-09-12T11:15:13.647Z,21.96
2022-09-12T11:18:05.056Z,22.15
2022-09-12T11:20:53.552Z,22.26
2022-09-12T11:23:42.055Z,22.21
2022-09-12T11:26:21.344Z,22.16
2022-09-12T11:28:58.742Z,22.22
2022-09-12T11:31:43.090Z,22.13
2022-09-12T11:34:11.132Z,22.05
2022-09-12T11:37:07.441Z,22.10
2022-09-12T11:39:40.119Z,22.13
2022-09-12T11:42:17.051Z,22.00
2022-09-12T11:44:47.570Z,22.09
2022-09-12T11:47:14.713Z,22.08
2022-09-12T11:49:48.715Z,22.14
2022-09-12T11:52:25.707Z,21.98
2022-09-12T11:55:29.717Z,21.90
2022-09-12T11:57:58.473Z,21.96
2022-09-12T12:00:31.223Z,22.08
2022-09-12T12:03:06.760Z,22.13
2022-09-12T12:06:10.761Z,22.03
2022-09-12T12:08:42.721Z,22.19
2022-09-12T12:13:50.721Z,22.26
2022-09-12T12:16:27.218Z,22.31
2022-09-12T12:18:57.232Z,22.14
2022-09-12T12:21:36.280Z,22.09
2022-09-12T12:24:07.083Z,22.32
2022-09-12T12:26:40.718Z,22.41
2022-09-12T12:29:44.038Z,22.22
2022-09-12T12:32:10.977Z,22.18
2022-09-12T12:34:42.393Z,22.14
2022-09-12T12:37:21.135Z,22.11
2022-09-12T12:39:51.377Z,22.11
2022-09-12T12:42:29.919Z,22.36
2022-09-12T12:44:56.638Z,22.31
2022-09-12T12:47:25.281Z,22.18
2022-09-12T12:49:54.866Z,22.10
2022-09-12T12:52:21.695Z,22.09
2022-09-12T12:54:51.089Z,22.19
2022-09-12T12:57:26.712Z,22.24
2022-09-12T13:00:01.344Z,22.33
2022-09-12T13:02:34.048Z,22.36
2022-09-12T13:05:03.204Z,22.45
2022-09-12T13:07:32.921Z,22.48
2022-09-12T13:10:00.895Z,22.54
2022-09-12T13:12:44.593Z,22.62
2022-09-12T13:15:36.285Z,22.64
2022-09-12T13:18:10.437Z,22.69
2022-09-12T13:20:45.692Z,22.51
2022-09-12T13:23:30.491Z,22.40
2022-09-12T13:25:59.030Z,22.33
2022-09-12T13:28:26.893Z,22.18
2022-09-12T13:31:11.872Z,22.17
2022-09-12T13:33:52.960Z,22.16
2022-09-12T13:36:56.806Z,22.24
2022-09-12T13:39:37.557Z,22.39
2022-09-12T13:42:26.279Z,22.32
2022-09-12T13:45:02.406Z,22.27
2022-09-12T13:47:36.269Z,22.33
2022-09-12T13:50:05.280Z,22.33
2022-09-12T13:52:34.017Z,22.41
2022-09-12T13:55:02.327Z,22.40
2022-09-12T13:57:37.664Z,22.45
2022-09-12T14:00:24.624Z,22.48
2022-09-12T14:03:11.243Z,22.53
2022-09-12T14:05:39.726Z,22.58
2022-09-12T14:08:08.725Z,22.43
2022-09-12T14:10:37.890Z,22.74
2022-09-12T14:13:13.062Z,22.82
2022-09-12T14:15:40.344Z,22.84
2022-09-12T14:18:08.771Z,22.71
2022-09-12T14:20:39.532Z,22.60
2022-09-12T14:23:21.577Z,22.54
2022-09-12T14:25:49.919Z,22.48
2022-09-12T14:28:23.604Z,22.47
2022-09-12T14:31:10.538Z,22.30
2022-09-12T14:33:48.359Z,22.31
2022-09-12T14:36:25.297Z,22.20
2022-09-12T14:39:17.630Z,22.25
2022-09-12T14:41:44.539Z,22.29
2022-09-12T14:44:17.848Z,22.25
2022-09-12T14:46:45.275Z,22.24
2022-09-12T14:49:34.641Z,22.30
2022-09-12T14:52:03.692Z,22.38
2022-09-12T14:54:30.361Z,22.35
2022-09-12T14:57:02.437Z,22.35
2022-09-12T14:59:34.828Z,22.28
2022-09-12T15:02:13.826Z,22.33
2022-09-12T15:04:42.256Z,22.32
2022-09-12T15:07:34.134Z,22.18
2022-09-12T15:10:15.597Z,22.21
2022-09-12T15:12:42.311Z,22.28
2022-09-12T15:15:20.867Z,22.17
2022-09-12T15:17:47.572Z,22.04
2022-09-12T15:20:14.808Z,22.03
2022-09-12T15:22:42.041Z,21.97
2022-09-12T15:25:10.977Z,21.95
2022-09-12T15:27:40.932Z,21.94
2022-09-12T15:30:10.410Z,21.79
2022-09-12T15:32:37.457Z,21.75
2022-09-12T15:35:04.427Z,21.76
2022-09-12T15:37:31.219Z,21.80
2022-09-12T15:39:57.980Z,21.73
2022-09-12T15:42:29.263Z,21.73
2022-09-12T15:44:59.435Z,21.74
2022-09-12T15:47:28.461Z,21.73
2022-09-12T15:49:55.135Z,21.66
2022-09-12T15:52:21.870Z,21.59
2022-09-12T15:54:48.590Z,21.57
2022-09-12T15:57:15.320Z,21.56
2022-09-12T15:59:41.915Z,21.61
2022-09-12T16:02:10.057Z,21.76
2022-09-12T16:04:36.734Z,21.76
2022-09-12T16:07:04.173Z,21.71
2022-09-12T16:09:30.819Z,21.56
2022-09-12T16:11:58.188Z,21.47
2022-09-12T16:14:24.829Z,21.35
2022-09-12T16:16:53.965Z,21.23
2022-09-12T16:19:21.072Z,21.13
2022-09-12T16:21:48.284Z,21.11
2022-09-12T16:24:15.000Z,21.04
2022-09-12T16:26:41.674Z,20.95
2022-09-12T16:29:09.499Z,20.90
2022-09-12T16:31:38.426Z,20.87
2022-09-12T16:34:05.139Z,20.82
2022-09-12T16:36:31.853Z,20.77
2022-09-12T16:38:58.725Z,20.74
2022-09-12T16:41:26.416Z,20.79
2022-09-12T16:43:54.154Z,20.88
2022-09-12T16:46:26.289Z,20.78
2022-09-12T16:48:54.436Z,20.62
2022-09-12T16:51:23.869Z,20.51
2022-09-12T16:53:50.856Z,20.37
2022-09-12T16:56:18.007Z,20.23
2022-09-12T16:58:45.433Z,20.12
2022-09-12T17:01:17.725Z,20.07
2022-09-12T17:03:44.515Z,20.05
2022-09-12T17:06:13.980Z,20.00
2022-09-12T17:08:42.974Z,19.94
2022-09-12T17:11:12.432Z,19.87
2022-09-12T17:14:03.262Z,19.81
2022-09-12T17:16:26.860Z,19.64
2022-09-12T17:18:53.899Z,19.56
2022-09-12T17:21:21.259Z,19.44
2022-09-12T17:23:48.172Z,19.35
2022-09-12T17:26:15.733Z,19.30
2022-09-12T17:28:42.925Z,19.24
2022-09-12T17:31:12.246Z,19.17
2022-09-12T17:33:39.832Z,19.10
2022-09-12T17:36:09.281Z,19.03
2022-09-12T17:38:38.074Z,19.05
2022-09-12T17:41:11.458Z,18.93
2022-09-12T17:43:38.163Z,18.86
2022-09-12T17:46:05.371Z,18.84
2022-09-12T17:48:32.594Z,18.75
2022-09-12T17:50:59.428Z,18.70
2022-09-12T17:53:26.087Z,18.63
2022-09-12T17:55:54.420Z,18.59
2022-09-12T17:58:21.232Z,18.59
2022-09-12T18:01:06.586Z,18.53
2022-09-12T18:03:35.227Z,18.55
2022-09-12T18:06:02.360Z,18.54
2022-09-12T18:08:29.132Z,18.50
2022-09-12T18:11:03.714Z,18.42
2022-09-12T18:13:32.418Z,18.38
2022-09-12T18:16:06.363Z,18.35
2022-09-12T18:18:34.135Z,18.30
2022-09-12T18:21:01.561Z,18.26
2022-09-12T18:23:28.257Z,18.25
2022-09-12T18:25:59.795Z,18.20
2022-09-12T18:28:27.063Z,18.16
2022-09-12T18:30:53.800Z,18.09
2022-09-12T18:33:23.873Z,18.10
2022-09-12T18:35:51.085Z,18.14
2022-09-12T18:38:17.760Z,18.12
2022-09-12T18:40:44.426Z,18.05
2022-09-12T18:43:11.140Z,17.96
2022-09-12T18:45:37.731Z,17.89
2022-09-12T18:48:06.183Z,17.78
2022-09-12T18:50:33.473Z,17.70
2022-09-12T18:53:00.204Z,17.63
2022-09-12T18:55:27.167Z,17.55
2022-09-12T18:57:55.258Z,17.47
2022-09-12T19:00:21.902Z,17.42
2022-09-12T19:02:48.543Z,17.38
2022-09-12T19:05:15.238Z,17.29
2022-09-12T19:07:41.933Z,17.23
2022-09-12T19:10:09.135Z,17.25
2022-09-12T19:12:35.855Z,17.26
2022-09-12T19:15:02.812Z,17.23
2022-09-12T19:17:29.762Z,17.20
2022-09-12T19:19:56.732Z,17.17
2022-09-12T19:22:23.445Z,17.14
2022-09-12T19:24:50.460Z,17.15
2022-09-12T19:27:17.092Z,17.08
2022-09-12T19:29:43.777Z,17.01
2022-09-12T19:32:10.505Z,16.93
2022-09-12T19:34:37.180Z,16.85
2022-09-12T19:37:04.239Z,16.84
2022-09-12T19:39:31.469Z,16.84
2022-09-12T19:41:58.153Z,16.85
2022-09-12T19:44:27.144Z,16.83
2022-09-12T19:46:54.010Z,16.82
2022-09-12T19:49:20.631Z,16.77
2022-09-12T19:51:47.275Z,16.75
2022-09-12T19:54:13.918Z,16.73
2022-09-12T19:56:41.125Z,16.67
2022-09-12T19:59:08.826Z,16.69
2022-09-12T20:01:37.475Z,16.66
2022-09-12T20:04:04.642Z,16.62
2022-09-12T20:06:31.297Z,16.63
2022-09-12T20:08:58.177Z,16.58
2022-09-12T20:11:25.759Z,16.57
2022-09-12T20:13:53.335Z,16.53
2022-09-12T20:16:29.675Z,16.50
2022-09-12T20:18:59.461Z,16.50
2022-09-12T20:21:31.927Z,16.51
2022-09-12T20:24:07.595Z,16.49
2022-09-12T20:26:34.651Z,16.44
2022-09-12T20:29:01.593Z,16.45
2022-09-12T20:31:28.477Z,16.41
2022-09-12T20:33:55.367Z,16.40
2022-09-12T20:36:22.355Z,16.40
2022-09-12T20:38:53.994Z,16.34
2022-09-12T20:41:21.439Z,16.31
2022-09-12T20:43:52.351Z,16.32
2022-09-12T20:46:22.080Z,16.32
2022-09-12T20:48:49.884Z,16.28
2022-09-12T20:51:16.893Z,16.19
2022-09-12T20:53:43.670Z,16.21
2022-09-12T20:56:10.404Z,16.17
2022-09-12T20:58:40.538Z,16.15
2022-09-12T21:01:14.064Z,16.15
2022-09-12T21:03:42.122Z,16.18
2022-09-12T21:06:10.159Z,16.18
2022-09-12T21:08:37.647Z,16.10
2022-09-12T21:11:05.461Z,16.05
2022-09-12T21:13:32.392Z,16.00
2022-09-12T21:16:00.111Z,15.98
2022-09-12T21:18:26.851Z,16.00
2022-09-12T21:20:54.440Z,15.94
2022-09-12T21:23:21.905Z,15.89
2022-09-12T21:25:52.410Z,15.89
2022-09-12T21:28:20.264Z,15.86
2022-09-12T21:30:50.475Z,15.87
2022-09-12T21:33:18.453Z,15.87
2022-09-12T21:35:45.472Z,15.86
2022-09-12T21:38:12.135Z,15.88
2022-09-12T21:40:38.866Z,15.92
2022-09-12T21:43:09.219Z,15.90
2022-09-12T21:45:38.685Z,15.88
2022-09-12T21:48:05.539Z,15.86
2022-09-12T21:50:32.374Z,15.87
2022-09-12T21:52:59.084Z,15.82
2022-09-12T21:55:27.283Z,15.79
2022-09-12T21:57:54.930Z,15.79
2022-09-12T22:00:22.572Z,15.69
2022-09-12T22:02:49.529Z,15.69
2022-09-12T22:05:17.347Z,15.64
2022-09-12T22:07:44.633Z,15.61
2022-09-12T22:10:11.388Z,15.58
2022-09-12T22:12:40.741Z,15.53
2022-09-12T22:15:36.503Z,15.53
2022-09-12T22:17:56.670Z,15.51
2022-09-12T22:20:23.292Z,15.48
2022-09-12T22:23:08.452Z,15.42
2022-09-12T22:25:35.168Z,15.41
2022-09-12T22:28:02.050Z,15.42
2022-09-12T22:30:28.801Z,15.40
2022-09-12T22:32:55.448Z,15.45
2022-09-12T22:35:22.053Z,15.48
2022-09-12T22:37:48.792Z,15.44
2022-09-12T22:40:15.928Z,15.36
2022-09-12T22:42:42.858Z,15.33
2022-09-12T22:45:09.944Z,15.41
2022-09-12T22:47:36.654Z,15.36
2022-09-12T22:50:03.716Z,15.35
2022-09-12T22:52:30.534Z,15.33
2022-09-12T22:54:57.351Z,15.32
2022-09-12T22:57:24.029Z,15.31
2022-09-12T22:59:50.690Z,15.31
2022-09-12T23:02:17.368Z,15.26
2022-09-12T23:04:44.308Z,15.26
2022-09-12T23:07:11.150Z,15.24
2022-09-12T23:09:37.781Z,15.22
2022-09-12T23:12:04.560Z,15.17
2022-09-12T23:14:31.169Z,15.10
2022-09-12T23:16:57.876Z,15.08
2022-09-12T23:19:24.544Z,15.05
2022-09-12T23:21:51.275Z,15.00
2022-09-12T23:24:18.040Z,14.98
2022-09-12T23:26:44.667Z,14.93
2022-09-12T23:29:11.974Z,14.86
2022-09-12T23:31:39.439Z,14.83
2022-09-12T23:34:06.279Z,14.77
2022-09-12T23:36:33.453Z,14.69
2022-09-12T23:39:00.311Z,14.71
2022-09-12T23:41:27.056Z,14.56
2022-09-12T23:43:53.892Z,14.54
2022-09-12T23:46:21.205Z,14.52
2022-09-12T23:48:48.318Z,14.38
2022-09-12T23:51:15.592Z,14.37
2022-09-12T23:53:42.332Z,14.41
2022-09-12T23:56:09.359Z,14.46
2022-09-12T23:58:36.346Z,14.45
